createdAt,value
2023-08-13T00:00:28.191Z,3.58
2023-08-13T00:02:54.948Z,4.18
2023-08-13T00:05:21.880Z,4.43
2023-08-13T00:07:48.458Z,4.28
2023-08-13T00:10:15.103Z,3.90
2023-08-13T00:12:41.866Z,3.95
2023-08-13T00:15:09.091Z,4.13
2023-08-13T00:17:35.731Z,4.15
2023-08-13T00:20:02.481Z,4.30
2023-08-13T00:22:30.576Z,3.70
2023-08-13T00:24:57.120Z,4.25
2023-08-13T00:27:23.796Z,4.13
2023-08-13T00:29:50.616Z,4.63
2023-08-13T00:32:17.462Z,4.07
2023-08-13T00:34:44.271Z,4.35
2023-08-13T00:37:10.826Z,4.38
2023-08-13T00:39:37.387Z,4.38
2023-08-13T00:42:04.779Z,3.83
2023-08-13T00:44:31.585Z,3.67
2023-08-13T00:46:58.283Z,4.25
2023-08-13T00:49:25.373Z,4.03
2023-08-13T00:51:52.266Z,4.10
2023-08-13T00:54:19.056Z,3.88
2023-08-13T00:56:48.161Z,3.95
2023-08-13T00:59:15.608Z,4.57
2023-08-13T01:01:43.530Z,4.05
2023-08-13T01:04:10.430Z,4.07
2023-08-13T01:06:51.988Z,3.67
2023-08-13T01:09:45.688Z,4.15
2023-08-13T01:12:15.576Z,4.13
2023-08-13T01:14:49.577Z,4.13
2023-08-13T01:17:18.866Z,4.40
2023-08-13T01:19:45.445Z,4.18
2023-08-13T01:22:12.431Z,3.72
2023-08-13T01:24:39.338Z,4.15
2023-08-13T01:27:32.793Z,4.57
2023-08-13T01:30:11.688Z,4.60
2023-08-13T01:32:51.943Z,4.60
2023-08-13T01:35:22.717Z,4.13
2023-08-13T01:37:50.926Z,3.90
2023-08-13T01:40:17.997Z,4.35
2023-08-13T01:42:44.587Z,3.50
2023-08-13T01:45:11.203Z,3.80
2023-08-13T01:47:38.027Z,4.07
2023-08-13T01:50:04.947Z,4.78
2023-08-13T01:52:32.517Z,3.47
2023-08-13T01:54:59.524Z,3.80
2023-08-13T01:57:26.179Z,4.53
2023-08-13T01:59:52.752Z,4.45
2023-08-13T02:02:19.504Z,4.30
2023-08-13T02:04:46.077Z,3.85
2023-08-13T02:07:12.733Z,4.28
2023-08-13T02:09:39.440Z,4.45
2023-08-13T02:12:06.327Z,4.70
2023-08-13T02:14:32.989Z,4.32
2023-08-13T02:17:01.002Z,4.13
2023-08-13T02:19:27.814Z,4.43
2023-08-13T02:21:54.372Z,4.22
2023-08-13T02:24:21.103Z,4.13
2023-08-13T02:26:47.661Z,4.22
2023-08-13T02:29:14.256Z,4.28
2023-08-13T02:31:40.954Z,3.95
2023-08-13T02:34:07.477Z,3.90
2023-08-13T02:36:34.040Z,4.22
2023-08-13T02:39:00.700Z,4.07
2023-08-13T02:41:27.282Z,3.97
2023-08-13T02:43:57.500Z,4.05
2023-08-13T02:46:26.195Z,4.25
2023-08-13T02:48:57.602Z,4.25
2023-08-13T02:51:25.494Z,4.03
2023-08-13T02:53:52.222Z,3.70
2023-08-13T02:56:21.767Z,3.88
2023-08-13T02:58:48.450Z,4.05
2023-08-13T03:01:15.205Z,4.28
2023-08-13T03:03:52.406Z,3.63
2023-08-13T03:06:24.060Z,4.15
2023-08-13T03:08:50.901Z,3.90
2023-08-13T03:11:18.372Z,4.07
2023-08-13T03:13:45.403Z,3.67
2023-08-13T03:16:12.131Z,3.75
2023-08-13T03:18:38.778Z,3.95
2023-08-13T03:21:05.372Z,4.45
2023-08-13T03:23:33.741Z,3.88
2023-08-13T03:26:01.529Z,4.15
2023-08-13T03:28:28.139Z,4.20
2023-08-13T03:31:02.047Z,3.67
2023-08-13T03:33:29.728Z,4.03
2023-08-13T03:35:56.238Z,4.13
2023-08-13T03:38:22.856Z,3.97
2023-08-13T03:40:49.531Z,4.40
2023-08-13T03:43:16.165Z,3.72
2023-08-13T03:45:44.036Z,4.40
2023-08-13T03:48:10.740Z,4.80
2023-08-13T03:50:43.885Z,4.65
2023-08-13T03:53:10.992Z,4.03
2023-08-13T03:55:38.669Z,3.63
2023-08-13T03:58:05.960Z,3.75
2023-08-13T04:00:32.594Z,3.70
2023-08-13T04:03:03.425Z,4.18
2023-08-13T04:05:38.556Z,4.18
2023-08-13T04:08:05.558Z,3.65
2023-08-13T04:10:32.410Z,4.23
2023-08-13T04:13:01.349Z,4.13
2023-08-13T04:15:30.874Z,3.60
2023-08-13T04:17:57.635Z,4.10
2023-08-13T04:20:24.214Z,4.22
2023-08-13T04:22:50.848Z,3.53
2023-08-13T04:25:17.486Z,4.22
2023-08-13T04:27:44.008Z,3.63
2023-08-13T04:30:10.929Z,3.30
2023-08-13T04:32:40.124Z,4.45
2023-08-13T04:35:07.302Z,4.32
2023-08-13T04:37:34.008Z,4.22
2023-08-13T04:40:00.657Z,4.35
2023-08-13T04:42:27.429Z,3.80
2023-08-13T04:44:53.976Z,3.85
2023-08-13T04:47:20.722Z,3.97
2023-08-13T04:49:47.277Z,3.95
2023-08-13T04:52:15.587Z,4.03
2023-08-13T04:54:44.116Z,4.10
2023-08-13T04:57:10.910Z,3.58
2023-08-13T04:59:37.493Z,3.97
2023-08-13T05:02:04.652Z,4.78
2023-08-13T05:04:31.382Z,4.13
2023-08-13T05:06:58.352Z,4.32
2023-08-13T05:09:24.978Z,4.30
2023-08-13T05:11:51.714Z,4.72
2023-08-13T05:14:18.593Z,5.15
2023-08-13T05:16:45.293Z,4.57
2023-08-13T05:19:11.867Z,5.00
2023-08-13T05:21:38.886Z,4.72
2023-08-13T05:24:06.216Z,5.00
2023-08-13T05:26:32.803Z,4.60
2023-08-13T05:28:59.415Z,4.32
2023-08-13T05:31:26.307Z,4.60
2023-08-13T05:33:55.049Z,4.88
2023-08-13T05:36:21.726Z,4.63
2023-08-13T05:38:48.453Z,5.40
2023-08-13T05:41:14.989Z,5.00
2023-08-13T05:43:41.802Z,4.82
2023-08-13T05:46:09.001Z,4.35
2023-08-13T05:48:35.925Z,4.57
2023-08-13T05:51:02.671Z,4.63
2023-08-13T05:53:29.266Z,5.15
2023-08-13T05:56:00.603Z,4.45
2023-08-13T05:58:27.378Z,5.80
2023-08-13T06:00:54.288Z,5.63
2023-08-13T06:03:21.197Z,5.53
2023-08-13T06:05:48.739Z,5.35
2023-08-13T06:08:15.362Z,4.63
2023-08-13T06:10:42.001Z,4.82
2023-08-13T06:13:08.773Z,5.28
2023-08-13T06:15:35.380Z,4.00
2023-08-13T06:18:02.049Z,4.57
2023-08-13T06:20:29.284Z,4.85
2023-08-13T06:22:55.935Z,5.15
2023-08-13T06:25:22.761Z,4.00
2023-08-13T06:27:49.446Z,4.30
2023-08-13T06:30:17.731Z,4.82
2023-08-13T06:32:44.410Z,4.43
2023-08-13T06:35:11.425Z,4.13
2023-08-13T06:37:50.978Z,4.13
2023-08-13T06:40:24.638Z,4.10
2023-08-13T06:42:51.244Z,4.13
2023-08-13T06:45:18.221Z,3.78
2023-08-13T06:47:45.514Z,4.32
2023-08-13T06:50:12.070Z,3.58
2023-08-13T06:52:38.837Z,3.55
2023-08-13T06:55:05.942Z,3.55
2023-08-13T06:57:32.595Z,3.40
2023-08-13T06:59:59.191Z,4.05
2023-08-13T07:02:28.066Z,3.72
2023-08-13T07:04:54.901Z,4.00
2023-08-13T07:07:21.474Z,3.95
2023-08-13T07:09:48.104Z,3.50
2023-08-13T07:12:14.984Z,3.90
2023-08-13T07:14:42.133Z,3.45
2023-08-13T07:17:08.815Z,3.55
2023-08-13T07:19:35.564Z,3.10
2023-08-13T07:22:02.479Z,3.17
2023-08-13T07:24:29.170Z,3.85
2023-08-13T07:26:55.698Z,3.13
2023-08-13T07:29:22.411Z,3.05
2023-08-13T07:31:49.090Z,2.97
2023-08-13T07:34:15.768Z,3.25
2023-08-13T07:36:42.774Z,3.05
2023-08-13T07:39:11.126Z,3.20
2023-08-13T07:41:37.704Z,2.53
2023-08-13T07:44:06.375Z,3.20
2023-08-13T07:46:32.947Z,2.30
2023-08-13T07:48:59.510Z,2.50
2023-08-13T07:51:26.449Z,2.30
2023-08-13T07:53:53.144Z,2.30
2023-08-13T07:56:19.758Z,2.38
2023-08-13T07:58:46.313Z,2.63
2023-08-13T08:01:13.816Z,2.13
2023-08-13T08:03:40.504Z,2.40
2023-08-13T08:06:07.244Z,2.40
2023-08-13T08:08:34.215Z,2.10
2023-08-13T08:11:00.753Z,2.58
2023-08-13T08:13:27.410Z,2.67
2023-08-13T08:15:54.151Z,2.40
2023-08-13T08:18:20.754Z,2.70
2023-08-13T08:20:47.279Z,2.50
2023-08-13T08:23:15.208Z,2.63
2023-08-13T08:25:42.007Z,2.08
2023-08-13T08:28:08.693Z,2.67
2023-08-13T08:30:35.542Z,2.17
2023-08-13T08:33:02.373Z,2.42
2023-08-13T08:37:55.588Z,2.30
2023-08-13T08:40:22.211Z,2.47
2023-08-13T09:00:01.063Z,1.77
2023-08-13T09:02:27.912Z,1.85
2023-08-13T09:04:54.682Z,1.80
2023-08-13T09:07:29.734Z,1.90
2023-08-13T09:09:56.296Z,2.05
2023-08-13T09:12:23.057Z,2.15
2023-08-13T09:14:54.303Z,1.63
2023-08-13T09:17:23.782Z,1.92
2023-08-13T09:19:50.435Z,2.45
2023-08-13T09:22:17.511Z,2.30
2023-08-13T09:24:47.948Z,1.65
2023-08-13T09:27:15.483Z,1.88
2023-08-13T09:32:09.204Z,2.30
2023-08-13T09:34:35.925Z,1.95
2023-08-13T09:37:03.203Z,2.25
2023-08-13T09:39:32.146Z,2.13
2023-08-13T09:42:00.571Z,2.00
2023-08-13T09:44:29.060Z,2.05
2023-08-13T09:47:07.827Z,1.90
2023-08-13T09:49:35.377Z,2.00
2023-08-13T09:52:09.428Z,2.20
2023-08-13T09:54:47.230Z,2.25
2023-08-13T09:57:17.344Z,2.38
2023-08-13T09:59:46.182Z,2.05
2023-08-13T10:02:15.450Z,2.20
2023-08-13T10:04:43.326Z,2.50
2023-08-13T10:07:10.365Z,2.00
2023-08-13T10:09:38.665Z,2.20
2023-08-13T10:12:10.982Z,1.88
2023-08-13T10:14:38.068Z,1.85
2023-08-13T10:17:06.935Z,1.98
2023-08-13T10:19:38.627Z,1.92
2023-08-13T10:22:05.634Z,1.90
2023-08-13T10:24:32.446Z,2.15
2023-08-13T10:27:00.020Z,1.80
2023-08-13T10:29:36.187Z,1.73
2023-08-13T10:32:14.046Z,2.10
2023-08-13T10:34:55.077Z,1.95
2023-08-13T10:37:23.635Z,1.85
2023-08-13T10:39:56.350Z,2.13
2023-08-13T10:42:33.841Z,2.13
2023-08-13T10:45:08.728Z,2.42
2023-08-13T10:47:48.125Z,2.10
2023-08-13T10:50:24.400Z,2.08
2023-08-13T10:52:53.398Z,2.17
2023-08-13T10:55:24.999Z,1.77
2023-08-13T10:57:55.262Z,2.10
2023-08-13T11:00:26.474Z,1.98
2023-08-13T11:03:20.253Z,1.58
2023-08-13T11:05:47.950Z,2.17
2023-08-13T11:08:41.979Z,2.00
2023-08-13T11:11:18.225Z,1.67
2023-08-13T11:13:46.344Z,2.10
2023-08-13T11:16:13.415Z,1.95
2023-08-13T11:18:40.144Z,1.88
2023-08-13T11:21:07.213Z,1.90
2023-08-13T11:23:33.997Z,1.95
2023-08-13T11:26:00.822Z,1.88
2023-08-13T11:28:28.762Z,2.15
2023-08-13T11:30:57.923Z,2.17
2023-08-13T11:33:25.585Z,1.75
2023-08-13T11:35:52.828Z,2.00
2023-08-13T11:38:20.336Z,1.95
2023-08-13T11:40:48.838Z,1.80
2023-08-13T11:43:15.557Z,1.77
2023-08-13T11:45:43.248Z,1.95
2023-08-13T11:48:16.122Z,1.73
2023-08-13T11:50:48.971Z,1.75
2023-08-13T11:53:17.035Z,1.90
2023-08-13T11:55:46.189Z,1.88
2023-08-13T11:58:17.650Z,1.55
2023-08-13T12:00:44.893Z,2.00
2023-08-13T12:05:40.714Z,1.95
2023-08-13T12:08:10.360Z,2.15
2023-08-13T12:10:38.234Z,2.00
2023-08-13T12:13:05.363Z,1.80
2023-08-13T12:15:35.020Z,2.10
2023-08-13T12:18:01.804Z,2.47
2023-08-13T12:20:28.879Z,2.00
2023-08-13T12:22:56.226Z,1.90
2023-08-13T12:27:52.498Z,1.88
2023-08-13T12:30:19.327Z,2.00
2023-08-13T12:32:46.081Z,2.13
2023-08-13T12:35:13.550Z,1.80
2023-08-13T12:37:40.197Z,1.88
2023-08-13T12:40:10.294Z,2.20
2023-08-13T12:42:37.763Z,1.65
2023-08-13T12:45:07.860Z,1.70
2023-08-13T12:47:35.866Z,1.58
2023-08-13T12:50:06.905Z,2.00
2023-08-13T12:52:33.708Z,1.70
2023-08-13T12:55:00.492Z,1.77
2023-08-13T12:57:27.270Z,1.58
2023-08-13T12:59:55.278Z,1.95
2023-08-13T13:02:23.291Z,2.10
2023-08-13T13:04:50.653Z,2.13
2023-08-13T13:07:17.812Z,1.90
2023-08-13T13:09:44.433Z,1.90
2023-08-13T13:12:10.943Z,2.00
2023-08-13T13:14:37.525Z,2.60
2023-08-13T13:17:04.274Z,2.10
2023-08-13T13:19:30.876Z,2.10
2023-08-13T13:21:57.389Z,2.30
2023-08-13T13:24:24.560Z,2.22
2023-08-13T13:26:51.134Z,2.40
2023-08-13T13:29:17.732Z,2.92
2023-08-13T13:31:45.679Z,2.20
2023-08-13T13:34:13.661Z,2.53
2023-08-13T13:36:42.330Z,2.60
2023-08-13T13:39:09.059Z,2.70
2023-08-13T13:41:35.613Z,2.40
2023-08-13T13:44:02.291Z,2.53
2023-08-13T13:46:29.015Z,2.90
2023-08-13T13:48:55.605Z,2.65
2023-08-13T13:51:22.247Z,2.60
2023-08-13T13:53:49.979Z,2.70
2023-08-13T13:56:16.538Z,2.70
2023-08-13T13:58:43.142Z,3.03
2023-08-13T14:01:09.838Z,3.03
2023-08-13T14:03:36.721Z,2.50
2023-08-13T14:06:03.608Z,2.83
2023-08-13T14:08:30.175Z,2.20
2023-08-13T14:10:56.769Z,2.40
2023-08-13T14:13:23.432Z,2.65
2023-08-13T14:15:50.134Z,2.50
2023-08-13T14:18:16.749Z,2.22
2023-08-13T14:20:43.340Z,2.50
2023-08-13T14:23:09.903Z,2.78
2023-08-13T14:25:36.566Z,2.70
2023-08-13T14:28:04.292Z,2.47
2023-08-13T14:30:31.148Z,2.42
2023-08-13T14:32:57.834Z,2.60
2023-08-13T14:35:24.555Z,2.53
2023-08-13T14:37:51.212Z,2.33
2023-08-13T14:40:18.083Z,2.65
2023-08-13T14:42:44.729Z,3.13
2023-08-13T14:45:11.458Z,2.53
2023-08-13T14:47:38.171Z,3.00
2023-08-13T14:50:05.440Z,3.50
2023-08-13T14:52:32.148Z,2.80
2023-08-13T14:54:58.869Z,2.47
2023-08-13T14:57:25.462Z,2.63
2023-08-13T14:59:52.151Z,2.80
2023-08-13T15:02:18.933Z,2.72
2023-08-13T15:04:45.940Z,2.58
2023-08-13T15:07:12.541Z,2.72
2023-08-13T15:09:39.724Z,2.92
2023-08-13T15:12:06.802Z,2.97
2023-08-13T15:14:33.417Z,2.85
2023-08-13T15:17:00.105Z,3.00
2023-08-13T15:19:28.149Z,2.65
2023-08-13T15:21:54.703Z,2.58
2023-08-13T15:24:21.319Z,3.05
2023-08-13T15:26:47.884Z,2.80
2023-08-13T15:29:14.458Z,2.92
2023-08-13T15:31:41.271Z,2.70
2023-08-13T15:34:11.349Z,3.08
2023-08-13T15:36:37.939Z,2.70
2023-08-13T15:39:05.999Z,2.80
2023-08-13T15:41:33.458Z,2.80
2023-08-13T15:44:02.091Z,3.00
2023-08-13T15:46:29.426Z,2.57
2023-08-13T15:48:56.036Z,2.65
2023-08-13T15:51:23.267Z,2.78
2023-08-13T15:53:52.382Z,2.72
2023-08-13T15:56:19.064Z,3.05
2023-08-13T15:58:45.725Z,2.55
2023-08-13T16:01:12.882Z,2.70
2023-08-13T16:03:39.551Z,2.63
2023-08-13T16:06:06.113Z,2.47
2023-08-13T16:08:32.769Z,2.58
2023-08-13T16:11:00.399Z,2.47
2023-08-13T16:13:27.941Z,2.65
2023-08-13T16:15:54.887Z,3.20
2023-08-13T16:18:22.912Z,2.88
2023-08-13T16:20:49.891Z,2.70
2023-08-13T16:23:16.552Z,3.08
2023-08-13T16:25:43.186Z,2.53
2023-08-13T16:28:09.767Z,2.53
2023-08-13T16:30:36.490Z,2.38
2023-08-13T16:33:03.474Z,2.80
2023-08-13T16:35:30.290Z,2.63
2023-08-13T16:37:57.367Z,2.60
2023-08-13T16:40:23.972Z,2.88
2023-08-13T16:43:04.337Z,3.28
2023-08-13T16:45:33.383Z,2.92
2023-08-13T16:48:00.338Z,2.88
2023-08-13T16:50:27.259Z,2.92
2023-08-13T16:52:54.241Z,2.90
2023-08-13T16:55:22.308Z,3.40
2023-08-13T16:57:49.230Z,2.92
2023-08-13T17:00:16.118Z,2.85
2023-08-13T17:02:44.750Z,2.67
2023-08-13T17:05:13.232Z,2.72
2023-08-13T17:07:40.376Z,3.00
2023-08-13T17:10:08.639Z,3.47
2023-08-13T17:12:37.043Z,2.83
2023-08-13T17:15:21.403Z,3.15
2023-08-13T17:17:51.781Z,2.92
2023-08-13T17:20:21.360Z,2.72
2023-08-13T17:22:49.094Z,2.80
2023-08-13T17:25:15.866Z,2.63
2023-08-13T17:27:42.676Z,3.00
2023-08-13T17:30:09.952Z,3.53
2023-08-13T17:32:36.611Z,3.35
2023-08-13T17:35:03.773Z,2.95
2023-08-13T17:37:32.403Z,3.60
2023-08-13T17:40:00.280Z,3.15
2023-08-13T17:42:27.134Z,3.63
2023-08-13T17:44:53.988Z,3.20
2023-08-13T17:47:22.342Z,3.33
2023-08-13T17:49:49.646Z,3.70
2023-08-13T17:52:17.037Z,4.28
2023-08-13T17:54:44.260Z,3.90
2023-08-13T17:57:10.877Z,3.00
2023-08-13T17:59:37.471Z,3.38
2023-08-13T18:02:04.230Z,3.08
2023-08-13T18:04:30.829Z,3.60
2023-08-13T18:06:57.628Z,3.70
2023-08-13T18:09:24.434Z,3.90
2023-08-13T18:11:53.181Z,2.95
2023-08-13T18:14:20.234Z,3.30
2023-08-13T18:16:46.960Z,3.05
2023-08-13T18:19:14.415Z,3.63
2023-08-13T18:21:41.160Z,3.60
2023-08-13T18:24:08.917Z,3.45
2023-08-13T18:26:35.736Z,3.70
2023-08-13T18:29:02.305Z,3.50
2023-08-13T18:31:29.450Z,3.45
2023-08-13T18:33:56.121Z,3.35
2023-08-13T18:36:22.841Z,3.30
2023-08-13T18:38:49.638Z,3.50
2023-08-13T18:41:16.326Z,3.78
2023-08-13T18:43:43.267Z,3.17
2023-08-13T18:46:10.063Z,2.55
2023-08-13T18:48:36.776Z,3.40
2023-08-13T18:51:03.754Z,3.53
2023-08-13T18:53:30.469Z,3.50
2023-08-13T18:55:57.289Z,3.65
2023-08-13T18:58:23.964Z,3.80
2023-08-13T19:00:51.137Z,3.25
2023-08-13T19:03:17.847Z,3.97
2023-08-13T19:05:45.782Z,3.85
2023-08-13T19:08:12.706Z,3.50
2023-08-13T19:10:46.492Z,3.75
2023-08-13T19:13:14.187Z,3.80
2023-08-13T19:15:41.479Z,4.30
2023-08-13T19:18:08.254Z,4.55
2023-08-13T19:20:35.653Z,4.00
2023-08-13T19:23:03.714Z,4.22
2023-08-13T19:25:30.620Z,5.60
2023-08-13T19:27:57.389Z,5.40
2023-08-13T19:30:24.122Z,4.25
2023-08-13T19:32:50.824Z,4.00
2023-08-13T19:35:17.731Z,3.53
2023-08-13T19:37:45.578Z,3.88
2023-08-13T19:40:12.695Z,5.32
2023-08-13T19:42:39.361Z,4.45
2023-08-13T19:45:06.573Z,3.80
2023-08-13T19:47:33.273Z,7.40
2023-08-13T19:50:00.134Z,8.68
2023-08-13T19:52:26.758Z,5.30
2023-08-13T19:54:53.373Z,3.60
2023-08-13T19:57:21.024Z,4.32
2023-08-13T19:59:49.369Z,4.25
2023-08-13T20:02:16.261Z,3.90
2023-08-13T20:04:43.051Z,4.18
2023-08-13T20:07:09.870Z,4.15
2023-08-13T20:09:36.459Z,4.03
2023-08-13T20:12:03.220Z,3.67
2023-08-13T20:14:29.890Z,4.07
2023-08-13T20:16:56.462Z,4.18
2023-08-13T20:19:23.055Z,3.50
2023-08-13T20:21:52.726Z,3.63
2023-08-13T20:26:47.941Z,4.10
2023-08-13T20:29:15.678Z,4.00
2023-08-13T20:31:43.451Z,4.18
2023-08-13T20:34:10.467Z,3.47
2023-08-13T20:36:37.969Z,3.78
2023-08-13T20:39:05.221Z,3.95
2023-08-13T20:41:32.193Z,4.15
2023-08-13T20:43:58.901Z,4.30
2023-08-13T20:46:25.928Z,3.80
2023-08-13T20:48:52.730Z,4.88
2023-08-13T20:51:19.746Z,4.03
2023-08-13T20:53:46.385Z,3.67
2023-08-13T20:56:13.036Z,3.97
2023-08-13T20:58:39.634Z,3.70
2023-08-13T21:01:07.448Z,4.32
2023-08-13T21:03:34.181Z,3.33
2023-08-13T21:06:00.802Z,4.28
2023-08-13T21:08:27.386Z,3.90
2023-08-13T21:10:53.978Z,3.70
2023-08-13T21:13:20.590Z,3.42
2023-08-13T21:15:47.577Z,3.80
2023-08-13T21:18:14.231Z,3.97
2023-08-13T21:20:40.807Z,3.53
2023-08-13T21:23:07.350Z,3.70
2023-08-13T21:25:34.668Z,3.78
2023-08-13T21:28:01.326Z,3.58
2023-08-13T21:30:27.976Z,3.75
2023-08-13T21:32:56.018Z,3.50
2023-08-13T21:35:24.118Z,3.92
2023-08-13T21:37:50.746Z,3.97
2023-08-13T21:40:17.409Z,4.40
2023-08-13T21:42:44.111Z,4.28
2023-08-13T21:45:10.825Z,3.92
2023-08-13T21:47:37.476Z,3.95
2023-08-13T21:50:04.430Z,3.90
2023-08-13T21:52:31.126Z,3.95
2023-08-13T21:54:57.706Z,4.85
2023-08-13T21:57:24.277Z,4.82
2023-08-13T21:59:50.774Z,4.82
2023-08-13T22:02:17.517Z,4.70
2023-08-13T22:04:45.407Z,4.07
2023-08-13T22:07:11.967Z,4.60
2023-08-13T22:09:38.491Z,4.32
2023-08-13T22:12:05.183Z,4.40
2023-08-13T22:14:31.734Z,4.50
2023-08-13T22:16:58.273Z,4.50
2023-08-13T22:19:46.649Z,4.03
2023-08-13T22:22:13.254Z,4.07
2023-08-13T22:24:39.843Z,4.25
2023-08-13T22:27:07.079Z,4.40
2023-08-13T22:29:33.667Z,4.13
2023-08-13T22:32:00.322Z,3.92
2023-08-13T22:34:26.932Z,3.42
2023-08-13T22:36:53.611Z,3.80
2023-08-13T22:39:20.155Z,3.40
2023-08-13T22:41:46.689Z,3.30
2023-08-13T22:44:13.237Z,3.22
2023-08-13T22:46:39.837Z,2.55
2023-08-13T22:49:06.393Z,3.22
2023-08-13T22:51:32.974Z,2.80
2023-08-13T22:53:59.514Z,2.70
2023-08-13T22:56:29.677Z,2.65
2023-08-13T22:58:56.484Z,2.40
2023-08-13T23:01:23.103Z,2.22
2023-08-13T23:03:49.740Z,2.65
2023-08-13T23:06:18.748Z,2.13
2023-08-13T23:08:45.447Z,2.22
2023-08-13T23:11:12.052Z,2.28
2023-08-13T23:13:38.623Z,2.22
2023-08-13T23:16:05.841Z,2.35
2023-08-13T23:18:32.509Z,2.05
2023-08-13T23:20:59.169Z,2.50
2023-08-13T23:23:25.756Z,2.05
2023-08-13T23:25:52.352Z,2.42
2023-08-13T23:28:19.092Z,2.45
2023-08-13T23:30:45.683Z,1.77
2023-08-13T23:33:12.389Z,1.90
2023-08-13T23:35:38.994Z,1.80
2023-08-13T23:38:05.588Z,1.77
2023-08-13T23:40:32.154Z,1.60
2023-08-13T23:42:58.831Z,1.35
2023-08-13T23:45:25.466Z,1.63
2023-08-13T23:47:52.111Z,1.15
2023-08-13T23:50:18.741Z,1.52
2023-08-13T23:52:45.271Z,1.50
2023-08-13T23:55:11.815Z,1.30
2023-08-13T23:57:38.401Z,1.50
